createdAt,value
2022-08-05T00:00:20.883Z,993.95
2022-08-05T00:01:27.410Z,994.01
2022-08-05T00:02:20.935Z,994.04
2022-08-05T00:03:19.876Z,994.07
2022-08-05T00:04:19.838Z,994.09
2022-08-05T00:06:01.666Z,994.15
2022-08-05T00:06:32.205Z,994.11
2022-08-05T00:07:27.227Z,994.11
2022-08-05T00:08:34.269Z,994.11
2022-08-05T00:09:20.785Z,994.12
2022-08-05T00:10:19.772Z,994.12
2022-08-05T00:11:28.088Z,994.08
2022-08-05T00:12:20.772Z,994.13
2022-08-05T00:13:19.932Z,994.17
2022-08-05T00:14:19.746Z,994.24
2022-08-05T00:15:55.227Z,994.29
2022-08-05T00:16:35.995Z,994.34
2022-08-05T00:17:20.800Z,994.33
2022-08-05T00:18:21.520Z,994.35
2022-08-05T00:19:19.698Z,994.37
2022-08-05T00:20:20.187Z,994.36
2022-08-05T00:21:19.673Z,994.39
2022-08-05T00:22:19.634Z,994.36
2022-08-05T00:23:44.607Z,994.37
2022-08-05T00:24:24.558Z,994.40
2022-08-05T00:25:19.630Z,994.48
2022-08-05T00:26:19.594Z,994.48
2022-08-05T00:27:19.585Z,994.49
2022-08-05T00:28:21.175Z,994.54
2022-08-05T00:29:22.407Z,994.58
2022-08-05T00:30:20.546Z,994.62
2022-08-05T00:31:53.674Z,994.67
2022-08-05T00:32:20.518Z,994.71
2022-08-05T00:34:54.358Z,994.75
2022-08-05T00:34:55.197Z,994.75
2022-08-05T00:35:20.498Z,994.69
2022-08-05T00:37:13.108Z,994.65
2022-08-05T00:37:20.463Z,994.61
2022-08-05T00:38:19.453Z,994.61
2022-08-05T00:39:20.455Z,994.62
2022-08-05T00:40:28.264Z,994.64
2022-08-05T00:41:20.445Z,994.58
2022-08-05T00:42:31.916Z,994.55
2022-08-05T00:43:20.399Z,994.52
2022-08-05T00:44:20.843Z,994.51
2022-08-05T00:45:28.030Z,994.49
2022-08-05T00:46:20.393Z,994.52
2022-08-05T00:47:20.359Z,994.44
2022-08-05T00:48:27.438Z,994.48
2022-08-05T00:49:20.333Z,994.48
2022-08-05T00:50:21.013Z,994.46
2022-08-05T00:51:51.863Z,994.46
2022-08-05T00:52:28.754Z,994.52
2022-08-05T00:54:00.153Z,994.49
2022-08-05T00:54:20.271Z,994.52
2022-08-05T00:55:19.294Z,994.58
2022-08-05T00:56:22.682Z,994.61
2022-08-05T00:57:21.239Z,994.61
2022-08-05T00:58:19.397Z,994.59
2022-08-05T00:59:19.224Z,994.60
2022-08-05T01:00:19.902Z,994.62
2022-08-05T01:01:24.888Z,994.58
2022-08-05T01:02:20.210Z,994.60
2022-08-05T01:03:22.713Z,994.59
2022-08-05T01:04:20.386Z,994.58
2022-08-05T01:05:20.156Z,994.57
2022-08-05T01:06:19.161Z,994.53
2022-08-05T01:07:19.133Z,994.50
2022-08-05T01:08:41.465Z,994.50
2022-08-05T01:09:20.405Z,994.50
2022-08-05T01:10:19.098Z,994.46
2022-08-05T01:11:22.248Z,994.46
2022-08-05T01:12:19.214Z,994.51
2022-08-05T01:13:19.486Z,994.55
2022-08-05T01:14:28.369Z,994.55
2022-08-05T01:15:36.132Z,994.62
2022-08-05T01:16:20.888Z,994.61
2022-08-05T01:17:19.016Z,994.61
2022-08-05T01:18:19.033Z,994.63
2022-08-05T01:19:18.999Z,994.63
2022-08-05T01:20:18.992Z,994.65
2022-08-05T01:21:22.881Z,994.60
2022-08-05T01:22:24.262Z,994.54
2022-08-05T01:23:23.284Z,994.56
2022-08-05T01:24:18.945Z,994.58
2022-08-05T01:25:18.937Z,994.57
2022-08-05T01:26:18.921Z,994.56
2022-08-05T01:27:19.505Z,994.55
2022-08-05T01:28:18.924Z,994.60
2022-08-05T01:29:18.887Z,994.64
2022-08-05T01:30:19.137Z,994.64
2022-08-05T01:31:19.861Z,994.65
2022-08-05T01:32:18.931Z,994.69
2022-08-05T01:33:19.712Z,994.73
2022-08-05T01:34:18.839Z,994.83
2022-08-05T01:35:51.215Z,994.95
2022-08-05T01:36:21.070Z,995.09
2022-08-05T01:37:24.987Z,995.23
2022-08-05T01:38:26.855Z,995.28
2022-08-05T01:39:46.685Z,995.34
2022-08-05T01:40:19.764Z,995.30
2022-08-05T01:41:21.622Z,995.26
2022-08-05T01:42:18.745Z,995.19
2022-08-05T01:43:21.911Z,995.17
2022-08-05T01:44:18.745Z,995.08
2022-08-05T01:45:18.710Z,994.99
2022-08-05T01:46:42.887Z,994.89
2022-08-05T01:47:19.685Z,994.69
2022-08-05T01:48:18.680Z,994.53
2022-08-05T01:49:24.273Z,994.45
2022-08-05T01:50:19.654Z,994.37
2022-08-05T01:51:19.669Z,994.31
2022-08-05T01:52:19.122Z,994.33
2022-08-05T01:53:54.657Z,994.34
2022-08-05T01:54:19.629Z,994.38
2022-08-05T01:55:19.591Z,994.47
2022-08-05T01:58:12.358Z,994.50
2022-08-05T01:58:13.648Z,994.44
2022-08-05T01:58:29.399Z,994.62
2022-08-05T01:59:19.572Z,994.74
2022-08-05T02:00:18.543Z,994.87
2022-08-05T02:01:25.328Z,994.91
2022-08-05T02:02:19.594Z,994.91
2022-08-05T02:03:29.135Z,994.89
2022-08-05T02:04:19.521Z,994.87
2022-08-05T02:05:18.483Z,994.87
2022-08-05T02:06:37.755Z,994.89
2022-08-05T02:07:21.848Z,994.91
2022-08-05T02:08:29.639Z,994.92
2022-08-05T02:09:20.581Z,994.94
2022-08-05T02:10:18.454Z,994.95
2022-08-05T02:11:23.715Z,994.93
2022-08-05T02:12:18.411Z,995.02
2022-08-05T02:13:18.395Z,995.00
2022-08-05T02:14:18.416Z,995.00
2022-08-05T02:15:19.763Z,994.99
2022-08-05T02:16:18.357Z,994.93
2022-08-05T02:18:28.423Z,994.90
2022-08-05T02:18:33.210Z,994.90
2022-08-05T02:19:19.323Z,994.90
2022-08-05T02:20:20.721Z,994.87
2022-08-05T02:21:18.303Z,994.88
2022-08-05T02:22:26.482Z,994.85
2022-08-05T02:23:19.284Z,994.84
2022-08-05T02:24:18.291Z,994.86
2022-08-05T02:25:18.281Z,994.96
2022-08-05T02:26:18.255Z,995.08
2022-08-05T02:27:18.242Z,995.14
2022-08-05T02:28:29.297Z,995.24
2022-08-05T02:29:21.580Z,995.32
2022-08-05T02:30:19.225Z,995.40
2022-08-05T02:31:21.039Z,995.48
2022-08-05T02:32:23.954Z,995.57
2022-08-05T02:33:24.331Z,995.74
2022-08-05T02:34:19.180Z,995.84
2022-08-05T02:35:19.202Z,996.01
2022-08-05T02:36:19.155Z,996.11
2022-08-05T02:37:18.126Z,996.14
2022-08-05T02:38:19.143Z,996.19
2022-08-05T02:39:18.183Z,996.31
2022-08-05T02:40:18.091Z,996.37
2022-08-05T02:41:18.080Z,996.45
2022-08-05T02:42:25.913Z,996.44
2022-08-05T02:43:19.055Z,996.50
2022-08-05T02:44:18.051Z,996.55
2022-08-05T02:45:18.061Z,996.57
2022-08-05T02:46:18.032Z,996.50
2022-08-05T02:47:19.032Z,996.43
2022-08-05T02:48:17.999Z,996.31
2022-08-05T02:49:17.986Z,996.23
2022-08-05T02:50:18.271Z,996.11
2022-08-05T02:51:17.969Z,996.07
2022-08-05T02:52:30.036Z,996.12
2022-08-05T02:53:19.682Z,996.16
2022-08-05T02:54:35.702Z,996.22
2022-08-05T02:55:51.989Z,996.24
2022-08-05T02:56:19.071Z,996.28
2022-08-05T02:58:12.160Z,996.27
2022-08-05T02:58:20.464Z,996.26
2022-08-05T02:59:17.876Z,996.19
2022-08-05T03:00:17.898Z,996.08
2022-08-05T03:01:19.474Z,996.05
2022-08-05T03:02:17.848Z,995.99
2022-08-05T03:03:17.854Z,995.93
2022-08-05T03:04:17.841Z,995.95
2022-08-05T03:05:21.843Z,995.96
2022-08-05T03:06:55.098Z,996.00
2022-08-05T03:07:59.373Z,996.03
2022-08-05T03:08:26.833Z,996.03
2022-08-05T03:09:36.086Z,996.06
2022-08-05T03:10:21.787Z,996.11
2022-08-05T03:11:57.850Z,996.14
2022-08-05T03:12:18.730Z,996.10
2022-08-05T03:13:17.721Z,996.00
2022-08-05T03:14:17.732Z,995.95
2022-08-05T03:15:17.698Z,995.87
2022-08-05T03:16:17.690Z,995.72
2022-08-05T03:17:17.679Z,995.58
2022-08-05T03:18:17.683Z,995.41
2022-08-05T03:19:33.111Z,995.28
2022-08-05T03:20:18.672Z,995.21
2022-08-05T03:21:17.658Z,995.15
2022-08-05T03:22:31.816Z,995.08
2022-08-05T03:23:18.618Z,994.95
2022-08-05T03:24:18.592Z,994.90
2022-08-05T03:25:33.643Z,994.82
2022-08-05T03:26:32.113Z,994.73
2022-08-05T03:27:18.563Z,994.60
2022-08-05T03:28:18.765Z,994.54
2022-08-05T03:29:17.543Z,994.39
2022-08-05T03:30:17.527Z,994.31
2022-08-05T03:31:18.249Z,994.20
2022-08-05T03:32:18.503Z,994.13
2022-08-05T03:33:17.520Z,994.07
2022-08-05T03:34:17.486Z,994.01
2022-08-05T03:35:17.476Z,993.99
2022-08-05T03:36:17.459Z,994.01
2022-08-05T03:37:18.480Z,993.97
2022-08-05T03:38:17.440Z,993.88
2022-08-05T03:39:20.116Z,993.72
2022-08-05T03:40:31.440Z,993.60
2022-08-05T03:41:18.409Z,993.52
2022-08-05T03:42:18.392Z,993.55
2022-08-05T03:43:59.131Z,993.59
2022-08-05T03:44:19.826Z,993.71
2022-08-05T03:45:21.912Z,993.77
2022-08-05T03:46:18.349Z,993.75
2022-08-05T03:47:17.365Z,993.66
2022-08-05T03:48:22.001Z,993.51
2022-08-05T03:49:18.346Z,993.34
2022-08-05T03:50:17.329Z,993.21
2022-08-05T03:52:38.009Z,993.13
2022-08-05T03:52:49.296Z,993.12
2022-08-05T03:55:34.249Z,993.20
2022-08-05T03:55:53.957Z,993.07
2022-08-05T03:56:04.121Z,993.09
2022-08-05T03:56:30.501Z,993.10
2022-08-05T03:57:18.240Z,993.12
2022-08-05T03:58:17.213Z,993.16
2022-08-05T03:59:20.351Z,993.20
2022-08-05T04:00:17.211Z,993.24
2022-08-05T04:01:17.250Z,993.32
2022-08-05T04:02:17.573Z,993.33
2022-08-05T04:03:28.356Z,993.38
2022-08-05T04:04:21.252Z,993.43
2022-08-05T04:05:17.138Z,993.47
2022-08-05T04:06:17.185Z,993.55
2022-08-05T04:07:17.112Z,993.62
2022-08-05T04:08:34.711Z,993.62
2022-08-05T04:09:20.401Z,993.63
2022-08-05T04:10:18.099Z,993.65
2022-08-05T04:11:17.070Z,993.65
2022-08-05T04:12:24.753Z,993.69
2022-08-05T04:13:18.062Z,993.70
2022-08-05T04:14:18.148Z,993.68
2022-08-05T04:15:17.022Z,993.65
2022-08-05T04:16:24.066Z,993.62
2022-08-05T04:17:17.996Z,993.62
2022-08-05T04:18:20.544Z,993.63
2022-08-05T04:19:17.973Z,993.59
2022-08-05T04:20:17.960Z,993.59
2022-08-05T04:22:05.067Z,993.60
2022-08-05T04:22:21.291Z,993.61
2022-08-05T04:23:16.950Z,993.60
2022-08-05T04:24:19.407Z,993.67
2022-08-05T04:25:17.131Z,993.73
2022-08-05T04:26:17.432Z,993.76
2022-08-05T04:27:16.932Z,993.85
2022-08-05T04:28:17.274Z,993.88
2022-08-05T04:29:16.874Z,993.86
2022-08-05T04:30:16.871Z,993.89
2022-08-05T04:31:16.844Z,993.87
2022-08-05T04:32:20.149Z,993.84
2022-08-05T04:33:17.816Z,993.86
2022-08-05T04:34:33.667Z,993.81
2022-08-05T04:35:19.606Z,993.82
2022-08-05T04:36:45.790Z,993.74
2022-08-05T04:37:17.795Z,993.71
2022-08-05T04:38:16.760Z,993.66
2022-08-05T04:39:16.819Z,993.66
2022-08-05T04:40:19.307Z,993.59
2022-08-05T04:41:16.723Z,993.59
2022-08-05T04:42:16.718Z,993.58
2022-08-05T04:43:16.925Z,993.56
2022-08-05T04:44:21.413Z,993.56
2022-08-05T04:45:31.349Z,993.56
2022-08-05T04:46:28.009Z,993.69
2022-08-05T04:47:20.342Z,993.76
2022-08-05T04:48:27.718Z,993.86
2022-08-05T04:49:17.666Z,993.92
2022-08-05T04:50:34.397Z,994.01
2022-08-05T04:51:17.634Z,994.09
2022-08-05T04:52:16.610Z,994.17
2022-08-05T04:53:16.588Z,994.24
2022-08-05T04:54:16.579Z,994.31
2022-08-05T04:55:16.570Z,994.35
2022-08-05T04:56:34.467Z,994.46
2022-08-05T04:57:17.547Z,994.51
2022-08-05T04:58:16.539Z,994.57
2022-08-05T04:59:22.073Z,994.67
2022-08-05T05:00:17.518Z,994.75
2022-08-05T05:02:06.090Z,994.86
2022-08-05T05:02:37.136Z,995.00
2022-08-05T05:03:20.265Z,995.15
2022-08-05T05:04:16.468Z,995.39
2022-08-05T05:05:28.445Z,995.48
2022-08-05T05:06:39.594Z,995.53
2022-08-05T05:07:17.434Z,995.57
2022-08-05T05:08:30.285Z,995.52
2022-08-05T05:09:18.323Z,995.51
2022-08-05T05:10:16.403Z,995.55
2022-08-05T05:11:16.391Z,995.65
2022-08-05T05:12:16.402Z,995.75
2022-08-05T05:13:16.369Z,995.86
2022-08-05T05:14:16.460Z,995.96
2022-08-05T05:15:17.534Z,996.00
2022-08-05T05:16:17.332Z,995.91
2022-08-05T05:17:22.765Z,995.83
2022-08-05T05:18:31.375Z,995.70
2022-08-05T05:19:19.281Z,995.56
2022-08-05T05:20:17.284Z,995.57
2022-08-05T05:21:16.300Z,995.49
2022-08-05T05:22:24.320Z,995.39
2022-08-05T05:23:19.983Z,995.33
2022-08-05T05:24:17.703Z,995.30
2022-08-05T05:25:17.508Z,995.28
2022-08-05T05:26:16.253Z,995.32
2022-08-05T05:27:16.308Z,995.31
2022-08-05T05:28:16.228Z,995.27
2022-08-05T05:29:16.193Z,995.25
2022-08-05T05:30:29.113Z,995.28
2022-08-05T05:31:18.549Z,995.20
2022-08-05T05:32:16.172Z,995.29
2022-08-05T05:33:17.433Z,995.23
2022-08-05T05:34:18.139Z,995.25
2022-08-05T05:35:19.871Z,995.21
2022-08-05T05:36:16.110Z,995.26
2022-08-05T05:37:16.167Z,995.29
2022-08-05T05:38:22.560Z,995.37
2022-08-05T05:39:19.080Z,995.41
2022-08-05T05:40:16.060Z,995.42
2022-08-05T05:41:16.296Z,995.45
2022-08-05T05:42:16.045Z,995.44
2022-08-05T05:43:16.056Z,995.39
2022-08-05T05:44:36.716Z,995.30
2022-08-05T05:45:17.007Z,995.28
2022-08-05T05:46:18.856Z,995.32
2022-08-05T05:47:21.525Z,995.35
2022-08-05T05:48:16.999Z,995.33
2022-08-05T05:49:23.093Z,995.32
2022-08-05T05:50:19.791Z,995.32
2022-08-05T05:51:16.183Z,995.31
2022-08-05T05:52:26.467Z,995.33
2022-08-05T05:53:20.896Z,995.38
2022-08-05T05:54:16.926Z,995.37
2022-08-05T05:55:15.896Z,995.33
2022-08-05T05:56:15.882Z,995.39
2022-08-05T05:57:19.052Z,995.46
2022-08-05T05:58:15.887Z,995.53
2022-08-05T05:59:15.849Z,995.63
2022-08-05T06:00:15.839Z,995.62
2022-08-05T06:01:15.828Z,995.64
2022-08-05T06:02:15.818Z,995.54
2022-08-05T06:03:39.623Z,995.55
2022-08-05T06:04:16.846Z,995.52
2022-08-05T06:05:15.782Z,995.47
2022-08-05T06:06:15.770Z,995.46
2022-08-05T06:07:15.792Z,995.48
2022-08-05T06:08:15.746Z,995.57
2022-08-05T06:09:24.757Z,995.62
2022-08-05T06:10:16.720Z,995.66
2022-08-05T06:11:15.716Z,995.75
2022-08-05T06:12:15.703Z,995.77
2022-08-05T06:13:15.698Z,995.74
2022-08-05T06:14:15.702Z,995.74
2022-08-05T06:15:23.639Z,995.79
2022-08-05T06:16:29.591Z,995.83
2022-08-05T06:17:24.337Z,995.82
2022-08-05T06:18:16.658Z,995.86
2022-08-05T06:19:15.626Z,995.83
2022-08-05T06:20:18.885Z,995.81
2022-08-05T06:21:18.721Z,995.77
2022-08-05T06:22:15.619Z,995.73
2022-08-05T06:23:15.583Z,995.76
2022-08-05T06:24:15.567Z,995.77
2022-08-05T06:25:25.259Z,995.78
2022-08-05T06:26:20.809Z,995.79
2022-08-05T06:28:09.078Z,995.78
2022-08-05T06:28:20.895Z,995.76
2022-08-05T06:29:25.422Z,995.75
2022-08-05T06:30:20.153Z,995.76
2022-08-05T06:31:18.092Z,995.74
2022-08-05T06:32:26.245Z,995.68
2022-08-05T06:33:19.464Z,995.69
2022-08-05T06:34:16.457Z,995.63
2022-08-05T06:36:02.955Z,995.66
2022-08-05T06:36:16.427Z,995.66
2022-08-05T06:37:15.418Z,995.64
2022-08-05T06:38:15.440Z,995.57
2022-08-05T06:39:15.462Z,995.58
2022-08-05T06:40:18.050Z,995.52
2022-08-05T06:41:16.383Z,995.49
2022-08-05T06:42:15.369Z,995.44
2022-08-05T06:43:59.228Z,995.43
2022-08-05T06:44:16.345Z,995.42
2022-08-05T06:45:20.729Z,995.44
2022-08-05T06:46:16.364Z,995.40
2022-08-05T06:47:29.939Z,995.38
2022-08-05T06:48:53.538Z,995.32
2022-08-05T06:49:16.312Z,995.27
2022-08-05T06:50:17.362Z,995.20
2022-08-05T06:51:23.939Z,995.18
2022-08-05T06:52:37.903Z,995.15
2022-08-05T06:53:22.646Z,995.12
2022-08-05T06:54:18.998Z,995.11
2022-08-05T06:55:15.244Z,995.09
2022-08-05T06:56:26.448Z,995.07
2022-08-05T06:58:02.699Z,995.08
2022-08-05T06:58:29.518Z,995.07
2022-08-05T06:59:16.176Z,995.10
2022-08-05T07:00:15.183Z,995.13
2022-08-05T07:01:16.226Z,995.11
2022-08-05T07:02:16.140Z,995.14
2022-08-05T07:03:16.675Z,995.18
2022-08-05T07:04:15.119Z,995.20
2022-08-05T07:05:18.886Z,995.22
2022-08-05T07:06:15.393Z,995.29
2022-08-05T07:07:15.287Z,995.31
2022-08-05T07:08:16.072Z,995.24
2022-08-05T07:09:15.067Z,995.33
2022-08-05T07:10:16.390Z,995.32
2022-08-05T07:11:15.773Z,995.33
2022-08-05T07:12:15.031Z,995.31
2022-08-05T07:13:15.024Z,995.24
2022-08-05T07:14:19.985Z,995.22
2022-08-05T07:15:34.129Z,995.12
2022-08-05T07:17:59.043Z,995.01
2022-08-05T07:18:00.013Z,995.01
2022-08-05T07:18:20.261Z,994.98
2022-08-05T07:19:44.382Z,994.94
2022-08-05T07:20:33.004Z,994.96
2022-08-05T07:21:15.926Z,994.94
2022-08-05T07:22:15.941Z,994.84
2022-08-05T07:23:26.111Z,994.77
2022-08-05T07:24:15.896Z,994.73
2022-08-05T07:25:24.079Z,994.64
2022-08-05T07:26:20.939Z,994.66
2022-08-05T07:27:15.858Z,994.75
2022-08-05T07:28:17.285Z,994.74
2022-08-05T07:29:15.105Z,994.77
2022-08-05T07:30:24.297Z,994.77
2022-08-05T07:31:15.827Z,994.80
2022-08-05T07:33:36.745Z,994.90
2022-08-05T07:34:28.775Z,994.97
2022-08-05T07:36:04.908Z,994.97
2022-08-05T07:36:27.070Z,994.93
2022-08-05T07:37:29.058Z,994.98
2022-08-05T07:38:34.341Z,994.96
2022-08-05T07:40:26.304Z,994.98
2022-08-05T07:40:32.260Z,994.97
2022-08-05T07:42:07.943Z,994.93
2022-08-05T07:42:33.843Z,994.90
2022-08-05T07:43:26.957Z,994.88
2022-08-05T07:44:25.925Z,994.90
2022-08-05T07:45:44.070Z,994.92
2022-08-05T07:46:26.952Z,994.96
2022-08-05T07:47:25.960Z,994.94
2022-08-05T07:49:01.586Z,994.96
2022-08-05T07:49:26.878Z,994.94
2022-08-05T07:50:32.561Z,995.01
2022-08-05T07:51:37.174Z,994.96
2022-08-05T07:52:26.839Z,994.96
2022-08-05T07:53:26.858Z,994.97
2022-08-05T07:54:31.130Z,994.91
2022-08-05T07:56:04.648Z,994.92
2022-08-05T07:57:00.612Z,994.91
2022-08-05T07:57:55.252Z,994.81
2022-08-05T07:58:54.631Z,994.81
2022-08-05T07:59:31.365Z,994.80
2022-08-05T08:00:26.752Z,994.81
2022-08-05T08:01:25.810Z,994.72
2022-08-05T08:02:26.593Z,994.71
2022-08-05T08:03:25.743Z,994.65
2022-08-05T08:04:37.894Z,994.63
2022-08-05T08:05:26.698Z,994.65
2022-08-05T08:06:28.257Z,994.63
2022-08-05T08:07:28.518Z,994.72
2022-08-05T08:08:26.103Z,994.74
2022-08-05T08:09:25.655Z,994.77
2022-08-05T08:10:25.641Z,994.81
2022-08-05T08:11:27.459Z,994.85
2022-08-05T08:12:38.050Z,994.95
2022-08-05T08:13:29.227Z,994.97
2022-08-05T08:14:25.597Z,995.03
2022-08-05T08:16:34.007Z,995.13
2022-08-05T08:16:35.426Z,995.20
2022-08-05T08:17:27.787Z,995.19
2022-08-05T08:18:25.555Z,995.20
2022-08-05T08:20:43.278Z,995.17
2022-08-05T08:21:00.546Z,995.07
2022-08-05T08:21:26.519Z,995.00
2022-08-05T08:22:26.919Z,994.97
2022-08-05T08:24:02.093Z,994.95
2022-08-05T08:24:34.747Z,994.96
2022-08-05T08:25:59.060Z,994.94
2022-08-05T08:26:26.716Z,994.96
2022-08-05T08:27:35.722Z,995.03
2022-08-05T08:28:36.334Z,995.13
2022-08-05T08:30:04.159Z,995.11
2022-08-05T08:30:29.513Z,995.13
2022-08-05T08:31:26.944Z,995.10
2022-08-05T08:32:27.756Z,995.07
2022-08-05T08:33:25.413Z,995.03
2022-08-05T08:34:30.790Z,995.02
2022-08-05T08:35:26.526Z,995.03
2022-08-05T08:36:38.582Z,995.09
2022-08-05T08:37:27.922Z,995.10
2022-08-05T08:38:35.436Z,995.13
2022-08-05T08:39:26.360Z,995.14
2022-08-05T08:40:25.309Z,995.12
2022-08-05T08:41:26.163Z,995.17
2022-08-05T08:42:33.883Z,995.20
2022-08-05T08:45:17.714Z,995.23
2022-08-05T08:45:25.240Z,995.21
2022-08-05T08:45:29.780Z,995.27
2022-08-05T08:46:25.247Z,995.30
2022-08-05T08:48:06.656Z,995.31
2022-08-05T08:49:03.554Z,995.25
2022-08-05T08:50:14.290Z,995.27
2022-08-05T08:50:51.941Z,995.27
2022-08-05T08:52:03.267Z,995.28
2022-08-05T08:52:26.549Z,995.23
2022-08-05T08:53:25.192Z,995.20
2022-08-05T08:54:27.345Z,995.19
2022-08-05T08:56:01.791Z,995.20
2022-08-05T08:56:27.094Z,995.18
2022-08-05T08:57:25.146Z,995.18
2022-08-05T08:58:37.134Z,995.23
2022-08-05T08:59:27.574Z,995.27
2022-08-05T09:00:26.236Z,995.25
2022-08-05T09:01:25.119Z,995.27
2022-08-05T09:02:26.921Z,995.29
2022-08-05T09:03:25.061Z,995.23
2022-08-05T09:04:30.327Z,995.27
2022-08-05T09:05:38.432Z,995.27
2022-08-05T09:06:28.048Z,995.27
2022-08-05T09:07:28.836Z,995.30
2022-08-05T09:08:26.570Z,995.31
2022-08-05T09:09:24.992Z,995.31
2022-08-05T09:10:27.215Z,995.30
2022-08-05T09:11:51.025Z,995.30
2022-08-05T09:12:27.299Z,995.30
2022-08-05T09:13:24.971Z,995.34
2022-08-05T09:14:57.764Z,995.38
2022-08-05T09:15:25.927Z,995.38
2022-08-05T09:16:26.934Z,995.44
2022-08-05T09:17:42.347Z,995.45
2022-08-05T09:18:25.896Z,995.45
2022-08-05T09:19:28.118Z,995.41
2022-08-05T09:20:36.582Z,995.52
2022-08-05T09:22:22.621Z,995.48
2022-08-05T09:22:31.987Z,995.50
2022-08-05T09:23:27.169Z,995.48
2022-08-05T09:24:24.833Z,995.45
2022-08-05T09:26:01.914Z,995.45
2022-08-05T09:26:25.808Z,995.40
2022-08-05T09:28:04.107Z,995.48
2022-08-05T09:28:32.257Z,995.47
2022-08-05T09:29:30.984Z,995.38
2022-08-05T09:30:25.764Z,995.39
2022-08-05T09:32:40.017Z,995.48
2022-08-05T09:32:41.270Z,995.52
2022-08-05T09:33:34.960Z,995.50
2022-08-05T09:34:26.129Z,995.49
2022-08-05T09:35:27.090Z,995.52
2022-08-05T09:36:27.843Z,995.55
2022-08-05T09:38:16.536Z,995.50
2022-08-05T09:38:27.365Z,995.46
2022-08-05T09:39:39.368Z,995.51
2022-08-05T09:40:25.721Z,995.55
2022-08-05T09:41:24.647Z,995.54
2022-08-05T09:42:28.516Z,995.59
2022-08-05T09:43:24.665Z,995.59
2022-08-05T09:44:24.620Z,995.60
2022-08-05T09:46:06.299Z,995.62
2022-08-05T09:46:27.575Z,995.58
2022-08-05T09:47:24.582Z,995.55
2022-08-05T09:48:24.572Z,995.50
2022-08-05T09:49:40.341Z,995.44
2022-08-05T09:50:37.629Z,995.43
2022-08-05T09:51:25.541Z,995.44
2022-08-05T09:52:25.564Z,995.47
2022-08-05T09:53:25.953Z,995.45
2022-08-05T09:54:29.275Z,995.44
2022-08-05T09:55:56.369Z,995.52
2022-08-05T09:56:25.484Z,995.48
2022-08-05T09:57:24.477Z,995.44
2022-08-05T09:58:24.487Z,995.37
2022-08-05T09:59:24.456Z,995.37
2022-08-05T10:00:24.553Z,995.39
2022-08-05T10:01:31.724Z,995.34
2022-08-05T10:02:25.901Z,995.31
2022-08-05T10:03:24.405Z,995.29
2022-08-05T10:04:28.523Z,995.32
2022-08-05T10:05:24.387Z,995.25
2022-08-05T10:06:24.399Z,995.30
2022-08-05T10:08:10.421Z,995.31
2022-08-05T10:08:37.261Z,995.32
2022-08-05T10:09:28.163Z,995.33
2022-08-05T10:10:28.209Z,995.44
2022-08-05T10:11:31.332Z,995.42
2022-08-05T10:12:33.544Z,995.37
2022-08-05T10:13:25.299Z,995.42
2022-08-05T10:14:26.779Z,995.40
2022-08-05T10:15:24.309Z,995.31
2022-08-05T10:16:24.275Z,995.33
2022-08-05T10:17:37.188Z,995.38
2022-08-05T10:18:25.245Z,995.38
2022-08-05T10:20:02.728Z,995.40
2022-08-05T10:20:25.246Z,995.37
2022-08-05T10:21:24.216Z,995.37
2022-08-05T10:22:29.811Z,995.38
2022-08-05T10:23:55.109Z,995.39
2022-08-05T10:24:25.178Z,995.35
2022-08-05T10:25:24.173Z,995.36
2022-08-05T10:26:31.700Z,995.37
2022-08-05T10:27:26.295Z,995.36
2022-08-05T10:28:29.130Z,995.37
2022-08-05T10:30:40.952Z,995.35
2022-08-05T10:32:46.714Z,995.34
2022-08-05T10:32:52.564Z,995.21
2022-08-05T10:32:54.286Z,995.17
2022-08-05T10:33:25.087Z,995.11
2022-08-05T10:34:25.623Z,995.09
2022-08-05T10:35:33.715Z,994.97
2022-08-05T10:36:25.864Z,995.04
2022-08-05T10:37:37.127Z,995.02
2022-08-05T10:38:25.031Z,995.10
2022-08-05T10:39:58.604Z,995.12
2022-08-05T10:40:28.149Z,995.09
2022-08-05T10:41:24.005Z,995.07
2022-08-05T10:42:33.498Z,995.12
2022-08-05T10:43:35.605Z,995.12
2022-08-05T10:44:24.970Z,995.09
2022-08-05T10:45:39.840Z,995.06
2022-08-05T10:46:24.948Z,995.04
2022-08-05T10:47:26.092Z,995.06
2022-08-05T10:48:31.141Z,995.09
2022-08-05T10:49:27.607Z,995.09
2022-08-05T10:50:36.625Z,995.07
2022-08-05T10:51:29.128Z,995.02
2022-08-05T10:52:24.065Z,995.07
2022-08-05T10:53:23.898Z,995.04
2022-08-05T10:54:29.979Z,995.02
2022-08-05T10:55:24.856Z,994.97
2022-08-05T10:56:25.877Z,995.04
2022-08-05T10:57:23.837Z,995.07
2022-08-05T10:58:23.846Z,995.04
2022-08-05T11:00:03.644Z,994.99
2022-08-05T11:00:24.801Z,995.02
2022-08-05T11:01:28.227Z,995.04
2022-08-05T11:02:37.876Z,994.98
2022-08-05T11:03:27.084Z,994.96
2022-08-05T11:04:26.117Z,994.95
2022-08-05T11:05:27.488Z,994.88
2022-08-05T11:06:30.753Z,994.95
2022-08-05T11:07:33.097Z,994.92
2022-08-05T11:08:37.207Z,995.00
2022-08-05T11:09:39.066Z,994.98
2022-08-05T11:10:27.546Z,995.02
2022-08-05T11:11:23.710Z,995.05
2022-08-05T11:12:25.060Z,995.02
2022-08-05T11:13:23.671Z,995.03
2022-08-05T11:14:37.292Z,995.03
2022-08-05T11:15:58.944Z,995.00
2022-08-05T11:16:47.415Z,994.97
2022-08-05T11:17:57.778Z,994.99
2022-08-05T11:18:24.632Z,994.96
2022-08-05T11:20:16.840Z,994.97
2022-08-05T11:20:24.586Z,994.97
2022-08-05T11:21:23.602Z,994.98
2022-08-05T11:22:23.569Z,994.97
2022-08-05T11:23:23.557Z,994.92
2022-08-05T11:24:30.206Z,994.94
2022-08-05T11:26:05.212Z,994.94
2022-08-05T11:26:31.861Z,994.92
2022-08-05T11:27:24.669Z,994.85
2022-08-05T11:28:23.504Z,994.87
2022-08-05T11:29:23.500Z,994.83
2022-08-05T11:30:23.484Z,994.78
2022-08-05T11:31:58.537Z,994.74
2022-08-05T11:32:24.458Z,994.73
2022-08-05T11:33:23.457Z,994.73
2022-08-05T11:34:26.270Z,994.76
2022-08-05T11:35:24.433Z,994.76
2022-08-05T11:36:34.706Z,994.82
2022-08-05T11:38:30.136Z,994.84
2022-08-05T11:38:31.029Z,994.87
2022-08-05T11:39:24.434Z,994.86
2022-08-05T11:40:23.403Z,994.94
2022-08-05T11:41:56.459Z,994.99
2022-08-05T11:42:27.935Z,995.11
2022-08-05T11:44:04.682Z,995.37
2022-08-05T11:44:52.966Z,995.67
2022-08-05T11:46:15.633Z,995.85
2022-08-05T11:46:32.260Z,996.12
2022-08-05T11:47:49.907Z,996.48
2022-08-05T11:48:24.288Z,996.37
2022-08-05T11:49:23.284Z,995.90
2022-08-05T11:50:23.289Z,995.94
2022-08-05T11:51:44.538Z,995.84
2022-08-05T11:52:24.250Z,995.71
2022-08-05T11:53:24.244Z,995.86
2022-08-05T11:54:23.222Z,995.94
2022-08-05T11:55:24.233Z,995.97
2022-08-05T11:56:40.689Z,995.96
2022-08-05T11:57:27.077Z,996.05
2022-08-05T11:58:23.179Z,996.13
2022-08-05T11:59:23.191Z,996.16
2022-08-05T12:00:23.156Z,996.22
2022-08-05T12:01:23.147Z,996.34
2022-08-05T12:02:30.319Z,996.34
2022-08-05T12:03:31.613Z,996.40
2022-08-05T12:04:24.112Z,996.46
2022-08-05T12:05:27.248Z,996.44
2022-08-05T12:06:24.092Z,996.46
2022-08-05T12:07:23.332Z,996.54
2022-08-05T12:08:24.096Z,996.51
2022-08-05T12:09:23.059Z,996.58
2022-08-05T12:10:24.866Z,996.62
2022-08-05T12:11:24.038Z,996.64
2022-08-05T12:12:23.027Z,996.71
2022-08-05T12:13:47.739Z,996.72
2022-08-05T12:14:24.223Z,996.75
2022-08-05T12:15:33.241Z,996.77
2022-08-05T12:16:27.158Z,996.79
2022-08-05T12:18:04.216Z,996.87
2022-08-05T12:18:24.354Z,996.97
2022-08-05T12:20:26.247Z,996.95
2022-08-05T12:20:33.224Z,997.02
2022-08-05T12:21:24.127Z,996.99
2022-08-05T12:22:22.916Z,997.02
2022-08-05T12:23:22.923Z,997.08
2022-08-05T12:24:22.899Z,997.06
2022-08-05T12:25:25.694Z,997.10
2022-08-05T12:26:24.049Z,997.12
2022-08-05T12:27:32.915Z,997.08
2022-08-05T12:28:23.850Z,997.13
2022-08-05T12:29:23.839Z,997.13